Terminal Aerodrome Forecast
Issued by NWS

Home | Current Version | Previous Version | Text Only | Print | Product List | Glossary On
Versions: 1 2 3 4 5 6 7 8 9 10 11 12 13 14 15 16 17 18 19
000
FTUS43 KGRB 271726
TAFATW
TAF
KATW 271726Z 2718/2818 26013G23KT 6SM -RA BR OVC015
      TEMPO 2718/2720 3SM -RASN BKN009
     FM272000 26014G25KT P6SM VCSH OVC015
     FM272200 26013G23KT P6SM OVC020
     FM280200 25009KT P6SM BKN028
     FM280900 24008KT P6SM SCT030 SCT120=

USA.gov is the U.S. government's official web portal to all federal, state and local government web resources and services.